Saint Clair, Michigan
Current Conditions -  °F | °C
As of 7:17 AM on Thursday 18 Dec 2014 (Local Time) from KPHN Reporting Station
Overcast Overcast  
Wind Chill: 28°   Ceiling: 1200
Heat Index: 28°   Visibility: 10mi
Dew Point: 28°   Wind: 0mph
Humidity: 100%   Direction: NA
Pressure: 30.17"   Gusts: NA
Location:  42.82°N, 82.49°W
Report Text: KPHN 181217Z AUTO 00000KT 10SM OVC012 M02/M02 A3017 RMK AO2
Loading
Personal Weather Stations






























Interactive Weather Map New forecast layout! Learn more

10-Day Weather Forecast

Advertisements
Track Severe Weather on mobile